Time;durP1;ratioP1;P1;durP2;ratioP2;P2;SDS_P1;SDS_P2;PMS_P1;PMS_P2;Temp;Humidity;BMP_temperature;BMP_pressure;BME280_temperature;BME280_humidity;BME280_pressure;Samples;Min_cycle;Max_cycle;Signal;HPM_P1;HPM_P2
2021/08/21 00:00:24;;;;;;;7.87;6.10;;;16.80;94.30;;;;;;4993257;28;20505;-71
2021/08/21 00:02:52;;;;;;;7.13;5.13;;;16.70;94.50;;;;;;4993649;28;20440;-70
2021/08/21 00:05:20;;;;;;;7.30;5.03;;;16.70;94.70;;;;;;5012756;28;20446;-70
2021/08/21 00:07:47;;;;;;;5.90;5.00;;;16.80;94.40;;;;;;5004851;28;20489;-70
2021/08/21 00:10:17;;;;;;;6.13;4.60;;;16.70;94.30;;;;;;4992832;28;20479;-69
2021/08/21 00:12:44;;;;;;;7.40;5.30;;;16.70;94.40;;;;;;4999413;28;20482;-69
2021/08/21 00:15:19;;;;;;;5.77;4.73;;;16.60;94.60;;;;;;5012533;28;20453;-76
2021/08/21 00:17:46;;;;;;;8.37;5.73;;;16.50;94.70;;;;;;5005913;28;20533;-70
2021/08/21 00:20:14;;;;;;;8.17;4.63;;;16.50;94.60;;;;;;5001718;28;20465;-70
2021/08/21 00:22:42;;;;;;;5.90;4.27;;;16.50;94.50;;;;;;5007005;28;20954;-70
2021/08/21 00:25:11;;;;;;;10.00;5.40;;;16.50;94.50;;;;;;4992958;28;20448;-69
2021/08/21 00:27:40;;;;;;;6.23;4.60;;;16.40;94.50;;;;;;4998125;28;20446;-70
2021/08/21 00:30:09;;;;;;;7.73;5.63;;;16.40;94.90;;;;;;5018046;28;20521;-70
2021/08/21 00:32:37;;;;;;;9.30;5.47;;;16.40;95.00;;;;;;5026048;28;20565;-70
2021/08/21 00:35:05;;;;;;;7.30;6.10;;;16.30;95.00;;;;;;5016279;28;20449;-70
2021/08/21 00:37:32;;;;;;;5.70;4.60;;;16.30;95.20;;;;;;5024661;28;20438;-69
2021/08/21 00:39:59;;;;;;;7.83;5.53;;;16.30;95.20;;;;;;5035908;28;20519;-70
2021/08/21 00:42:28;;;;;;;6.97;4.93;;;16.40;95.10;;;;;;5028242;28;20438;-69
2021/08/21 00:44:57;;;;;;;6.70;5.40;;;16.30;94.90;;;;;;5028698;28;20497;-70
2021/08/21 00:47:24;;;;;;;6.70;5.70;;;16.30;94.60;;;;;;5029010;28;20447;-70
2021/08/21 00:49:53;;;;;;;6.80;5.77;;;16.30;94.70;;;;;;5016093;28;20500;-70
2021/08/21 00:52:24;;;;;;;6.53;4.60;;;16.20;94.60;;;;;;5021163;28;20485;-70
2021/08/21 00:54:52;;;;;;;5.97;5.07;;;16.30;94.50;;;;;;5035786;28;20777;-70
2021/08/21 00:57:20;;;;;;;7.47;5.87;;;16.30;94.50;;;;;;5020393;28;20887;-69
2021/08/21 00:59:49;;;;;;;7.67;6.33;;;16.20;94.60;;;;;;5016057;28;20453;-70
2021/08/21 01:02:18;;;;;;;5.17;4.40;;;16.20;94.50;;;;;;5029931;28;20464;-70
2021/08/21 01:04:47;;;;;;;6.40;4.60;;;16.20;94.50;;;;;;5035780;28;20438;-70
2021/08/21 01:07:17;;;;;;;7.90;5.27;;;16.20;94.50;;;;;;5021887;28;20449;-70
2021/08/21 01:09:45;;;;;;;8.10;5.20;;;16.10;94.50;;;;;;5034672;28;20434;-70
2021/08/21 01:12:15;;;;;;;6.60;4.90;;;16.10;94.60;;;;;;5022411;28;20479;-69
2021/08/21 01:14:46;;;;;;;5.10;4.53;;;16.10;94.90;;;;;;5015693;28;20521;-70
2021/08/21 01:17:15;;;;;;;7.67;5.90;;;16.00;95.00;;;;;;5027502;28;20430;-69
2021/08/21 01:19:46;;;;;;;5.63;4.10;;;16.00;95.00;;;;;;5030111;28;20991;-70
2021/08/21 01:22:16;;;;;;;5.60;5.07;;;16.00;94.80;;;;;;5015778;28;20441;-68
2021/08/21 01:24:44;;;;;;;7.20;4.43;;;16.10;94.60;;;;;;5019856;28;20492;-71
2021/08/21 01:27:18;;;;;;;5.53;4.23;;;16.00;94.20;;;;;;5035274;28;20434;-70
2021/08/21 01:29:46;;;;;;;5.70;4.33;;;16.00;93.90;;;;;;5030497;28;20888;-70
2021/08/21 01:32:13;;;;;;;5.27;3.80;;;16.00;93.80;;;;;;5024423;28;20477;-70
2021/08/21 01:34:40;;;;;;;5.17;3.90;;;15.90;93.70;;;;;;5031512;28;20453;-70
2021/08/21 01:37:08;;;;;;;7.57;4.97;;;15.90;93.60;;;;;;5015407;28;20431;-68
2021/08/21 01:39:35;;;;;;;7.07;4.00;;;15.90;93.50;;;;;;5016687;28;20439;-68
2021/08/21 01:42:03;;;;;;;5.70;4.00;;;15.90;93.50;;;;;;5035011;28;20453;-70
2021/08/21 01:44:31;;;;;;;4.67;3.93;;;15.80;93.60;;;;;;5024459;28;20450;-70
2021/08/21 01:46:58;;;;;;;4.50;3.80;;;15.80;93.50;;;;;;5015164;28;20445;-68
2021/08/21 01:49:27;;;;;;;5.00;4.17;;;15.80;93.50;;;;;;5015844;28;20798;-69
2021/08/21 01:51:56;;;;;;;4.20;3.70;;;15.80;93.50;;;;;;5015026;28;20521;-68
2021/08/21 01:54:24;;;;;;;6.73;5.10;;;15.70;93.70;;;;;;5024290;28;20445;-70
2021/08/21 01:56:53;;;;;;;4.63;3.90;;;15.70;93.90;;;;;;5016553;28;20810;-70
2021/08/21 01:59:21;;;;;;;5.20;4.40;;;15.70;94.00;;;;;;5023136;28;20460;-68
2021/08/21 02:01:50;;;;;;;6.30;4.80;;;15.70;93.90;;;;;;5034561;28;20460;-67
2021/08/21 02:04:17;;;;;;;5.23;4.30;;;15.60;94.00;;;;;;5026032;28;20789;-70
2021/08/21 02:06:45;;;;;;;5.77;4.73;;;15.60;94.00;;;;;;5015795;28;20454;-70
2021/08/21 02:09:12;;;;;;;5.00;4.07;;;15.60;94.20;;;;;;5021311;28;20868;-68
2021/08/21 02:11:39;;;;;;;5.13;3.43;;;15.60;93.80;;;;;;5034354;28;20437;-68
2021/08/21 02:14:07;;;;;;;6.00;3.90;;;15.60;93.50;;;;;;5023576;28;20967;-70
2021/08/21 02:16:35;;;;;;;4.73;3.90;;;15.50;93.30;;;;;;5023582;28;20437;-70
2021/08/21 02:19:04;;;;;;;4.90;3.90;;;15.50;93.10;;;;;;5034092;28;20461;-70
2021/08/21 02:21:34;;;;;;;5.53;4.00;;;15.50;93.10;;;;;;5034415;28;20932;-70
2021/08/21 02:24:02;;;;;;;5.80;4.17;;;15.50;93.40;;;;;;5026030;28;20929;-70
2021/08/21 02:26:37;;;;;;;4.10;3.70;;;15.50;93.50;;;;;;5015327;28;20497;-70
2021/08/21 02:29:05;;;;;;;5.77;3.67;;;15.40;93.50;;;;;;5021569;28;20438;-70
2021/08/21 02:31:32;;;;;;;4.83;4.33;;;15.40;93.50;;;;;;5033961;28;20470;-69
2021/08/21 02:33:59;;;;;;;5.50;3.67;;;15.30;93.20;;;;;;5026784;28;20478;-69
2021/08/21 02:36:28;;;;;;;4.70;4.10;;;15.20;93.30;;;;;;5014212;28;20443;-69
2021/08/21 02:38:55;;;;;;;6.17;4.57;;;15.20;93.60;;;;;;5015009;28;20521;-69
2021/08/21 02:41:23;;;;;;;6.33;4.13;;;15.20;93.80;;;;;;5014151;28;20869;-72
2021/08/21 02:43:50;;;;;;;4.67;4.27;;;15.20;93.70;;;;;;5028390;28;20500;-70
2021/08/21 02:46:18;;;;;;;4.23;3.70;;;15.20;93.60;;;;;;5033883;28;20438;-70
2021/08/21 02:48:51;;;;;;;5.40;4.90;;;15.20;93.90;;;;;;5028010;28;20439;-70
2021/08/21 02:51:18;;;;;;;4.70;3.33;;;15.20;93.80;;;;;;5033110;28;20449;-68
2021/08/21 02:53:50;;;;;;;5.10;4.10;;;15.10;93.50;;;;;;5019882;28;20478;-69
2021/08/21 02:56:18;;;;;;;5.17;3.90;;;15.00;93.60;;;;;;5013808;28;20465;-69
2021/08/21 02:58:45;;;;;;;11.60;4.40;;;15.00;93.50;;;;;;5025467;28;20461;-71
2021/08/21 03:01:14;;;;;;;5.30;4.00;;;14.90;93.80;;;;;;5033571;28;20464;-71
2021/08/21 03:03:46;;;;;;;4.60;3.43;;;14.90;93.80;;;;;;5021961;28;20445;-70
2021/08/21 03:06:14;;;;;;;4.77;3.73;;;14.90;94.10;;;;;;5013934;28;20944;-70
2021/08/21 03:08:41;;;;;;;6.80;4.17;;;14.90;94.00;;;;;;5024666;28;20434;-70
2021/08/21 03:11:11;;;;;;;9.50;3.90;;;14.90;93.80;;;;;;5033232;28;20437;-71
2021/08/21 03:13:43;;;;;;;5.30;4.03;;;14.90;93.50;;;;;;5022744;28;20540;-70
2021/08/21 03:16:11;;;;;;;8.60;4.50;;;14.80;93.70;;;;;;5013764;28;20867;-70
2021/08/21 03:18:38;;;;;;;4.70;4.20;;;14.80;93.70;;;;;;5022662;28;20517;-70
2021/08/21 03:21:05;;;;;;;4.83;3.50;;;14.80;93.60;;;;;;5020144;28;20937;-72
2021/08/21 03:23:33;;;;;;;4.50;4.03;;;14.80;93.60;;;;;;5021495;28;20511;-70
2021/08/21 03:26:01;;;;;;;6.70;4.23;;;14.80;93.70;;;;;;5033099;28;20437;-70
2021/08/21 03:28:30;;;;;;;6.10;5.00;;;14.70;93.60;;;;;;5025845;28;20459;-70
2021/08/21 03:30:57;;;;;;;6.40;4.87;;;14.70;93.90;;;;;;5013225;28;20477;-70
2021/08/21 03:33:27;;;;;;;7.50;5.80;;;14.70;94.10;;;;;;5029010;28;20488;-70
2021/08/21 03:35:54;;;;;;;9.10;5.47;;;14.70;94.10;;;;;;5033094;28;20425;-70
2021/08/21 03:38:21;;;;;;;8.20;5.17;;;14.60;93.90;;;;;;5017263;28;20450;-70
2021/08/21 03:40:49;;;;;;;7.50;5.30;;;14.60;94.00;;;;;;5013179;28;20443;-70
2021/08/21 03:43:16;;;;;;;6.23;4.93;;;14.50;94.10;;;;;;5026887;28;20807;-71
2021/08/21 03:45:45;;;;;;;5.23;4.23;;;14.50;94.10;;;;;;5014319;28;20435;-70
2021/08/21 03:48:12;;;;;;;4.90;3.90;;;14.50;94.00;;;;;;5013879;28;20992;-71
2021/08/21 03:50:39;;;;;;;7.77;5.47;;;14.50;93.90;;;;;;5013124;28;20439;-70
2021/08/21 03:53:07;;;;;;;5.57;4.60;;;14.50;94.20;;;;;;5025728;28;20481;-70
2021/08/21 03:55:37;;;;;;;6.50;5.03;;;14.50;94.20;;;;;;5031497;28;20445;-70
2021/08/21 03:58:06;;;;;;;6.97;5.03;;;14.50;94.00;;;;;;5017044;28;20524;-70
2021/08/21 04:00:33;;;;;;;5.20;4.43;;;14.50;94.10;;;;;;5032178;28;20469;-72
2021/08/21 04:03:03;;;;;;;5.33;4.10;;;14.50;94.30;;;;;;5013166;28;20435;-70
2021/08/21 04:05:30;;;;;;;5.77;4.13;;;14.50;94.60;;;;;;5012729;28;20434;-70
2021/08/21 04:07:57;;;;;;;5.63;4.30;;;14.50;94.80;;;;;;5016426;28;20438;-70
2021/08/21 04:10:24;;;;;;;6.87;3.90;;;14.60;94.90;;;;;;5032372;28;20449;-70
2021/08/21 04:12:52;;;;;;;4.70;3.80;;;14.60;94.60;;;;;;5014416;28;20470;-69
2021/08/21 04:15:19;;;;;;;5.13;3.77;;;14.60;94.10;;;;;;5012526;28;20443;-69
2021/08/21 04:17:46;;;;;;;3.50;2.83;;;14.50;93.80;;;;;;5028905;28;20518;-69
2021/08/21 04:20:15;;;;;;;3.80;3.20;;;14.50;93.60;;;;;;5030537;28;20429;-69
2021/08/21 04:22:42;;;;;;;4.33;3.80;;;14.50;93.50;;;;;;5032364;28;20496;-70
2021/08/21 04:25:11;;;;;;;5.53;4.17;;;14.40;93.70;;;;;;5028300;28;20455;-71
2021/08/21 04:27:39;;;;;;;4.37;3.60;;;14.40;93.80;;;;;;5012899;28;20430;-69
2021/08/21 04:30:07;;;;;;;5.00;4.23;;;14.40;93.60;;;;;;5014403;28;20442;-69
2021/08/21 04:32:34;;;;;;;8.47;5.60;;;14.40;93.60;;;;;;5022355;28;20469;-69
2021/08/21 04:35:01;;;;;;;8.40;5.80;;;14.30;93.80;;;;;;5013688;28;20450;-70
2021/08/21 04:37:36;;;;;;;7.10;5.17;;;14.30;93.80;;;;;;5031994;28;20504;-69
2021/08/21 04:40:06;;;;;;;4.50;3.90;;;14.30;94.00;;;;;;5030554;28;20486;-69
2021/08/21 04:42:33;;;;;;;6.13;4.43;;;14.20;94.10;;;;;;5012546;28;21004;-70
2021/08/21 04:45:01;;;;;;;5.00;4.47;;;14.20;94.30;;;;;;5011331;28;20438;-70
2021/08/21 04:47:28;;;;;;;6.40;4.60;;;14.20;94.20;;;;;;5026800;28;20795;-70
2021/08/21 04:49:56;;;;;;;7.13;4.23;;;14.20;94.50;;;;;;5030350;28;21130;-70
2021/08/21 04:52:24;;;;;;;5.80;4.80;;;14.30;94.80;;;;;;5030680;28;20465;-70
2021/08/21 04:54:53;;;;;;;5.50;4.23;;;14.30;94.80;;;;;;5029140;28;20485;-70
2021/08/21 04:57:20;;;;;;;6.50;4.00;;;14.20;95.00;;;;;;5028701;28;20936;-70
2021/08/21 04:59:50;;;;;;;6.43;4.87;;;14.30;95.50;;;;;;5028696;28;20438;-70
2021/08/21 05:02:17;;;;;;;5.27;4.20;;;14.30;95.50;;;;;;5030317;28;20450;-70
2021/08/21 05:04:44;;;;;;;6.33;4.80;;;14.30;95.80;;;;;;5023505;28;20896;-70
2021/08/21 05:07:12;;;;;;;4.97;3.77;;;14.30;96.10;;;;;;5028634;28;20446;-70
2021/08/21 05:09:39;;;;;;;5.07;4.30;;;14.40;96.20;;;;;;5028878;28;20441;-70
2021/08/21 05:12:08;;;;;;;5.27;4.60;;;14.50;96.10;;;;;;5029745;28;20437;-71
2021/08/21 05:14:36;;;;;;;6.30;4.63;;;14.60;96.00;;;;;;5033656;28;20820;-70
2021/08/21 05:17:05;;;;;;;7.53;4.77;;;14.60;95.80;;;;;;5033710;28;20499;-74
2021/08/21 05:19:35;;;;;;;6.57;4.70;;;14.70;95.80;;;;;;5032818;28;20436;-70
2021/08/21 05:22:21;;;;;;;5.53;4.93;;;14.70;95.70;;;;;;5030038;28;20492;-70
2021/08/21 05:24:49;;;;;;;6.53;4.70;;;14.80;95.90;;;;;;5033414;28;20456;-70
2021/08/21 05:27:18;;;;;;;5.40;4.70;;;14.90;95.90;;;;;;5032666;28;20617;-70
2021/08/21 05:29:46;;;;;;;8.10;4.80;;;15.00;96.10;;;;;;5028456;28;20473;-70
2021/08/21 05:32:13;;;;;;;8.63;5.37;;;15.10;96.30;;;;;;5033918;28;20867;-70
2021/08/21 05:34:42;;;;;;;9.73;5.07;;;15.10;96.10;;;;;;5034961;28;20485;-70
2021/08/21 05:37:09;;;;;;;7.10;5.47;;;15.20;96.20;;;;;;5035271;28;20449;-71
2021/08/21 05:39:36;;;;;;;8.17;5.23;;;15.30;96.40;;;;;;5017100;28;20434;-70
2021/08/21 05:42:04;;;;;;;8.57;6.20;;;15.40;96.50;;;;;;5025991;28;21009;-70
2021/08/21 05:44:33;;;;;;;7.50;5.97;;;15.50;96.70;;;;;;5033693;28;20516;-70
2021/08/21 05:47:00;;;;;;;8.10;5.97;;;15.60;96.80;;;;;;5031451;28;20847;-70
2021/08/21 05:49:27;;;;;;;7.33;5.67;;;15.80;96.90;;;;;;5033173;28;20445;-71
2021/08/21 05:51:54;;;;;;;5.90;5.33;;;15.90;96.90;;;;;;5026908;28;20443;-70
2021/08/21 05:54:21;;;;;;;6.37;4.83;;;16.00;96.90;;;;;;5029694;28;20485;-70
2021/08/21 05:56:48;;;;;;;6.20;5.00;;;16.10;96.80;;;;;;5030399;28;21511;-70
2021/08/21 05:59:20;;;;;;;8.90;6.17;;;16.20;96.90;;;;;;5032378;28;20466;-72
2021/08/21 06:01:48;;;;;;;11.93;8.43;;;16.30;96.80;;;;;;5032742;28;20435;-70
2021/08/21 06:04:15;;;;;;;12.03;9.37;;;16.50;96.80;;;;;;5033385;28;20449;-70
2021/08/21 06:06:43;;;;;;;9.97;7.97;;;16.60;96.60;;;;;;5031040;28;20446;-71
2021/08/21 06:09:10;;;;;;;6.30;4.97;;;16.70;96.40;;;;;;5029127;28;20445;-70
2021/08/21 06:11:37;;;;;;;6.70;4.93;;;16.90;96.30;;;;;;5031177;28;20434;-70
2021/08/21 06:14:05;;;;;;;7.37;5.77;;;17.00;96.20;;;;;;5033101;28;20481;-70
2021/08/21 06:16:32;;;;;;;7.67;6.00;;;17.10;96.20;;;;;;5028716;28;20441;-68
2021/08/21 06:19:00;;;;;;;8.30;5.03;;;17.20;96.10;;;;;;5029100;28;20433;-68
2021/08/21 06:21:30;;;;;;;6.90;6.10;;;17.30;96.30;;;;;;5032567;28;20461;-68
2021/08/21 06:23:57;;;;;;;7.97;5.63;;;17.50;96.30;;;;;;5032462;28;20865;-70
2021/08/21 06:26:25;;;;;;;10.20;5.37;;;17.60;96.30;;;;;;5030900;28;20499;-70
2021/08/21 06:28:52;;;;;;;6.20;5.30;;;17.70;96.40;;;;;;5031117;28;20442;-71
2021/08/21 06:31:19;;;;;;;6.87;5.70;;;17.90;96.30;;;;;;5025601;28;20507;-71
2021/08/21 06:33:52;;;;;;;7.53;5.80;;;18.00;96.20;;;;;;5013823;28;20493;-71
2021/08/21 06:36:21;;;;;;;8.50;5.67;;;18.10;96.00;;;;;;5013533;28;20483;-70
2021/08/21 06:38:49;;;;;;;8.53;5.97;;;18.20;95.80;;;;;;5016228;28;20446;-70
2021/08/21 06:41:16;;;;;;;7.83;6.23;;;18.30;95.60;;;;;;5019249;28;20464;-70
2021/08/21 06:43:43;;;;;;;7.23;5.63;;;18.50;95.70;;;;;;5013973;28;20449;-71
2021/08/21 06:46:12;;;;;;;6.40;5.63;;;18.60;95.20;;;;;;5031872;28;20866;-70
2021/08/21 06:48:42;;;;;;;8.23;5.43;;;18.80;94.50;;;;;;5033735;28;20433;-73
2021/08/21 06:51:09;;;;;;;10.53;6.10;;;18.90;94.10;;;;;;5013527;28;20434;-71
2021/08/21 06:53:40;;;;;;;6.90;6.20;;;19.00;94.20;;;;;;5014350;28;20482;-70
2021/08/21 06:56:07;;;;;;;7.60;5.70;;;19.20;94.10;;;;;;5027727;28;20433;-70
2021/08/21 06:58:35;;;;;;;8.70;5.90;;;19.30;93.90;;;;;;5027187;28;20802;-68
2021/08/21 07:01:02;;;;;;;5.63;4.80;;;19.50;93.00;;;;;;5013342;28;20438;-69
2021/08/21 07:03:29;;;;;;;5.90;5.30;;;19.60;92.60;;;;;;5019566;28;20440;-68
2021/08/21 07:05:56;;;;;;;7.40;5.10;;;19.80;92.30;;;;;;5019660;28;20443;-68
2021/08/21 07:08:23;;;;;;;6.53;5.53;;;19.90;92.80;;;;;;5013245;28;20435;-68
2021/08/21 07:10:52;;;;;;;6.47;5.47;;;20.10;92.90;;;;;;5025289;28;20441;-68
2021/08/21 07:13:19;;;;;;;6.27;5.43;;;20.30;93.30;;;;;;5017303;28;20442;-68
2021/08/21 07:15:47;;;;;;;8.00;4.63;;;20.50;92.90;;;;;;5030739;28;20465;-69
2021/08/21 07:18:14;;;;;;;7.17;5.03;;;20.70;92.40;;;;;;5030524;28;20481;-68
2021/08/21 07:20:41;;;;;;;5.90;5.00;;;20.90;91.40;;;;;;5030005;28;20448;-68
2021/08/21 07:23:08;;;;;;;7.43;5.03;;;21.00;91.60;;;;;;5030139;28;20437;-68
2021/08/21 07:25:41;;;;;;;11.23;4.60;;;21.20;91.70;;;;;;5030596;28;20958;-68
2021/08/21 07:28:15;;;;;;;6.93;5.43;;;21.40;91.50;;;;;;5029611;28;20442;-69
2021/08/21 07:30:48;;;;;;;9.13;6.10;;;21.60;91.20;;;;;;5021426;28;20880;-68
2021/08/21 07:33:21;;;;;;;6.33;5.60;;;21.70;90.70;;;;;;4994009;28;20842;-69
2021/08/21 07:35:51;;;;;;;7.70;5.80;;;21.90;90.20;;;;;;5001393;28;20474;-74
2021/08/21 07:38:19;;;;;;;11.00;5.60;;;22.00;90.00;;;;;;5010352;28;20435;-69
2021/08/21 07:40:46;;;;;;;6.60;5.43;;;22.20;90.00;;;;;;5010663;28;20442;-68
2021/08/21 07:43:14;;;;;;;10.30;5.90;;;22.40;90.00;;;;;;5009228;28;20474;-68
2021/08/21 07:45:47;;;;;;;9.67;6.17;;;22.60;88.30;;;;;;5010881;28;20438;-68
2021/08/21 07:48:15;;;;;;;6.47;5.40;;;22.80;86.90;;;;;;5007343;28;20534;-68
2021/08/21 07:50:45;;;;;;;6.20;5.13;;;23.00;85.30;;;;;;5011455;28;20451;-68
2021/08/21 07:53:20;;;;;;;7.90;4.83;;;23.20;85.50;;;;;;5011364;28;20860;-68
2021/08/21 07:55:52;;;;;;;9.30;5.70;;;23.40;84.10;;;;;;5011343;28;20524;-68
2021/08/21 07:58:20;;;;;;;6.67;5.60;;;23.60;82.20;;;;;;5011212;28;20484;-68
2021/08/21 08:00:52;;;;;;;7.30;6.00;;;23.80;84.30;;;;;;5011297;28;20473;-69
2021/08/21 08:03:19;;;;;;;7.77;5.80;;;24.00;83.30;;;;;;5007199;28;20525;-68
2021/08/21 08:05:51;;;;;;;7.03;6.00;;;24.30;81.40;;;;;;5011149;28;21449;-67
2021/08/21 08:08:28;;;;;;;6.37;5.70;;;24.50;80.50;;;;;;5005033;28;20917;-68
2021/08/21 08:11:03;;;;;;;7.40;5.17;;;24.70;79.80;;;;;;5007855;28;20454;-68
2021/08/21 08:13:31;;;;;;;6.37;5.23;;;25.00;80.50;;;;;;5008515;28;20471;-69
2021/08/21 08:15:59;;;;;;;8.83;5.87;;;25.20;77.90;;;;;;5010836;28;20486;-68
2021/08/21 08:18:27;;;;;;;7.87;5.27;;;25.40;76.10;;;;;;5011102;28;20907;-68
2021/08/21 08:20:54;;;;;;;6.53;5.50;;;25.60;74.10;;;;;;5009466;28;20448;-68
2021/08/21 08:23:21;;;;;;;6.90;5.00;;;25.70;76.20;;;;;;5010169;28;20452;-71
2021/08/21 08:25:49;;;;;;;5.33;4.70;;;25.90;73.60;;;;;;5008948;28;20434;-68
2021/08/21 08:28:16;;;;;;;6.03;5.40;;;26.00;72.10;;;;;;5010668;28;21434;-68
2021/08/21 08:30:44;;;;;;;5.80;5.07;;;26.20;73.50;;;;;;5009607;28;20470;-73
2021/08/21 08:33:11;;;;;;;6.73;5.00;;;26.40;71.70;;;;;;5011080;28;20470;-68
2021/08/21 08:35:38;;;;;;;8.27;5.53;;;26.50;70.60;;;;;;4999583;28;20475;-70
2021/08/21 08:38:07;;;;;;;6.27;5.10;;;26.70;69.90;;;;;;4995479;28;20546;-68
2021/08/21 08:40:35;;;;;;;6.10;4.40;;;26.90;71.90;;;;;;5007787;28;20983;-69
2021/08/21 08:43:04;;;;;;;5.70;4.80;;;27.00;70.80;;;;;;5008824;28;20447;-75
2021/08/21 08:45:32;;;;;;;7.93;5.40;;;27.10;66.50;;;;;;5009776;28;20514;-69
2021/08/21 08:48:02;;;;;;;6.73;5.03;;;27.30;68.60;;;;;;5011811;28;20474;-72
2021/08/21 08:50:30;;;;;;;6.73;5.07;;;27.50;65.00;;;;;;5013729;28;20525;-68
2021/08/21 08:52:57;;;;;;;6.40;5.10;;;27.70;63.70;;;;;;5008337;28;20587;-68
2021/08/21 08:55:24;;;;;;;5.70;4.63;;;27.80;61.70;;;;;;5009240;28;20474;-68
2021/08/21 08:57:53;;;;;;;5.93;5.33;;;27.90;61.60;;;;;;5009721;28;20446;-73
2021/08/21 09:00:23;;;;;;;7.43;5.80;;;28.00;63.40;;;;;;5011571;28;20949;-69
2021/08/21 09:02:52;;;;;;;5.97;4.43;;;28.20;60.00;;;;;;5009071;28;20483;-68
2021/08/21 09:05:24;;;;;;;7.50;5.73;;;28.20;61.00;;;;;;5013233;28;20432;-68
2021/08/21 09:07:52;;;;;;;5.60;5.03;;;28.40;62.50;;;;;;5009531;28;20441;-69
2021/08/21 09:10:22;;;;;;;6.47;4.53;;;28.60;63.00;;;;;;5007410;28;20510;-71
2021/08/21 09:12:51;;;;;;;7.67;4.60;;;28.90;61.50;;;;;;5013384;28;20804;-68
2021/08/21 09:15:29;;;;;;;6.20;5.17;;;29.10;59.80;;;;;;5012994;28;20482;-68
2021/08/21 09:18:01;;;;;;;5.70;4.37;;;29.40;59.00;;;;;;5013671;28;20437;-68
2021/08/21 09:20:30;;;;;;;7.10;4.87;;;29.60;60.00;;;;;;5013473;28;20507;-68
2021/08/21 09:23:17;;;;;;;5.10;4.53;;;29.70;58.40;;;;;;5008752;28;20932;-68
2021/08/21 09:25:44;;;;;;;7.13;5.53;;;29.90;58.80;;;;;;5011977;28;20437;-69
2021/08/21 09:28:16;;;;;;;6.67;5.07;;;30.00;58.30;;;;;;5013434;28;20466;-69
2021/08/21 09:30:44;;;;;;;7.30;5.77;;;30.10;58.80;;;;;;5013102;28;20896;-69
2021/08/21 09:33:11;;;;;;;5.80;5.17;;;30.30;58.30;;;;;;5013124;28;20446;-69
2021/08/21 09:35:40;;;;;;;6.50;5.90;;;30.40;57.00;;;;;;5008866;28;20494;-68
2021/08/21 09:38:07;;;;;;;5.80;5.17;;;30.50;56.10;;;;;;5009521;28;20446;-69
2021/08/21 09:40:36;;;;;;;8.40;5.50;;;30.60;54.00;;;;;;5012249;28;20842;-68
2021/08/21 09:43:05;;;;;;;6.53;5.70;;;30.60;55.30;;;;;;5006488;28;20809;-69
2021/08/21 09:45:35;;;;;;;7.40;5.80;;;30.70;54.60;;;;;;5010708;28;20501;-68
2021/08/21 09:48:05;;;;;;;6.07;4.57;;;30.80;52.90;;;;;;5009628;28;20454;-68
2021/08/21 09:50:34;;;;;;;7.10;5.67;;;30.70;52.70;;;;;;5011321;28;20963;-69
2021/08/21 09:53:06;;;;;;;5.70;5.00;;;30.80;51.10;;;;;;5010499;28;20475;-68
2021/08/21 09:55:41;;;;;;;6.30;5.23;;;30.80;51.70;;;;;;5012202;28;20485;-71
2021/08/21 09:58:15;;;;;;;6.10;5.47;;;30.80;50.30;;;;;;5007745;28;20434;-68
2021/08/21 10:00:43;;;;;;;6.13;5.50;;;30.80;52.60;;;;;;5011692;28;20446;-70
2021/08/21 10:03:10;;;;;;;5.40;4.67;;;30.90;53.00;;;;;;5011700;28;20485;-69
2021/08/21 10:05:37;;;;;;;6.03;5.33;;;31.00;52.80;;;;;;5011698;28;20844;-68
2021/08/21 10:08:08;;;;;;;7.40;4.73;;;31.00;49.20;;;;;;5007751;28;20526;-69
2021/08/21 10:10:38;;;;;;;9.37;6.50;;;31.00;50.90;;;;;;5010728;28;20514;-70
2021/08/21 10:13:10;;;;;;;9.47;6.23;;;31.00;50.10;;;;;;5011634;28;20529;-69
2021/08/21 10:15:39;;;;;;;8.90;6.00;;;31.00;50.10;;;;;;5013144;28;20489;-69
2021/08/21 10:18:07;;;;;;;8.97;5.87;;;31.20;47.70;;;;;;5013622;28;20455;-68
2021/08/21 10:20:35;;;;;;;8.33;6.30;;;31.00;48.90;;;;;;5003639;28;20447;-68
2021/08/21 10:23:09;;;;;;;6.10;5.33;;;31.10;48.30;;;;;;4993828;28;20810;-68
2021/08/21 10:25:40;;;;;;;6.17;5.57;;;31.10;46.90;;;;;;5008204;28;20496;-72
2021/08/21 10:28:08;;;;;;;5.17;4.60;;;31.10;47.10;;;;;;5010787;28;20842;-68
2021/08/21 10:30:45;;;;;;;6.23;5.30;;;31.10;47.70;;;;;;5017976;28;20516;-69
2021/08/21 10:33:13;;;;;;;5.50;4.73;;;31.20;47.30;;;;;;5032844;28;20469;-70
2021/08/21 10:35:43;;;;;;;5.13;4.60;;;31.30;47.20;;;;;;5032391;28;20486;-69
2021/08/21 10:38:40;;;;;;;7.03;4.77;;;31.40;47.70;;;;;;5032819;28;20469;-69
2021/08/21 10:41:36;;;;;;;6.47;5.10;;;31.60;48.60;;;;;;5032665;28;20442;-72
2021/08/21 10:44:04;;;;;;;6.60;4.80;;;31.70;46.90;;;;;;5032097;28;20476;-69
2021/08/21 10:46:51;;;;;;;5.63;5.03;;;31.80;48.10;;;;;;5032664;28;20456;-68
2021/08/21 10:49:45;;;;;;;5.40;4.37;;;31.90;46.40;;;;;;5032310;28;20525;-68
2021/08/21 10:52:48;;;;;;;7.47;5.17;;;32.00;46.20;;;;;;5030804;28;20912;-70
2021/08/21 10:55:22;;;;;;;8.23;5.40;;;32.10;47.40;;;;;;5012459;28;20536;-69
2021/08/21 10:57:58;;;;;;;5.93;5.33;;;32.20;44.70;;;;;;5012148;28;20442;-68
2021/08/21 11:00:49;;;;;;;8.33;5.60;;;32.20;45.80;;;;;;5012613;28;20442;-68
2021/08/21 11:03:18;;;;;;;5.60;5.00;;;32.30;45.00;;;;;;5012388;28;20442;-68
2021/08/21 11:05:57;;;;;;;5.90;5.33;;;32.40;45.20;;;;;;5014946;28;20464;-69
2021/08/21 11:08:26;;;;;;;6.70;6.00;;;32.40;45.10;;;;;;5020053;28;20944;-70
2021/08/21 11:11:31;;;;;;;8.00;5.90;;;32.50;45.30;;;;;;5014830;28;20446;-69
2021/08/21 11:14:04;;;;;;;6.70;5.93;;;32.60;44.00;;;;;;4971210;28;20447;-68
2021/08/21 11:16:48;;;;;;;8.33;6.17;;;32.50;44.50;;;;;;5024259;28;20551;-68
2021/08/21 11:19:44;;;;;;;6.07;5.37;;;32.50;46.70;;;;;;5032517;28;20468;-68
2021/08/21 11:22:33;;;;;;;5.77;5.13;;;32.60;46.30;;;;;;5033448;28;20438;-68
2021/08/21 11:25:07;;;;;;;8.67;5.70;;;32.60;45.80;;;;;;5031683;28;20434;-69
2021/08/21 11:27:41;;;;;;;6.70;6.00;;;32.60;47.20;;;;;;5023374;28;20448;-68
2021/08/21 11:30:22;;;;;;;5.20;4.70;;;32.70;43.90;;;;;;5012439;28;20447;-68
2021/08/21 11:33:02;;;;;;;5.73;5.23;;;32.60;44.10;;;;;;5022199;28;20445;-68
2021/08/21 11:35:31;;;;;;;6.60;5.93;;;32.50;42.30;;;;;;5033414;28;20575;-68
2021/08/21 11:38:01;;;;;;;6.43;5.17;;;32.40;43.30;;;;;;5021568;28;20434;-68
2021/08/21 11:40:35;;;;;;;7.53;5.57;;;32.50;43.70;;;;;;5013752;28;20490;-67
2021/08/21 11:43:05;;;;;;;6.00;5.40;;;32.50;45.50;;;;;;5013820;28;20478;-68
2021/08/21 11:45:33;;;;;;;6.60;5.40;;;32.60;45.90;;;;;;5013918;28;20828;-68
2021/08/21 11:48:00;;;;;;;7.17;5.70;;;32.60;44.90;;;;;;5012060;28;20482;-68
2021/08/21 11:50:31;;;;;;;5.97;5.37;;;32.60;44.50;;;;;;5026813;28;20438;-68
2021/08/21 11:53:00;;;;;;;12.10;10.93;;;32.60;44.40;;;;;;5032866;28;20924;-67
2021/08/21 11:55:28;;;;;;;6.70;5.40;;;32.60;46.00;;;;;;5028585;28;20485;-68
2021/08/21 11:57:57;;;;;;;6.77;6.10;;;32.70;43.00;;;;;;5030442;28;20434;-68
2021/08/21 12:00:28;;;;;;;9.37;6.20;;;32.80;43.80;;;;;;5029753;28;20436;-69
2021/08/21 12:02:57;;;;;;;5.43;4.87;;;32.80;42.40;;;;;;5023540;28;20438;-67
2021/08/21 12:05:32;;;;;;;5.30;4.80;;;32.70;43.00;;;;;;5030426;28;20442;-68
2021/08/21 12:08:00;;;;;;;6.50;5.90;;;32.80;42.60;;;;;;5023981;28;20536;-67
2021/08/21 12:10:31;;;;;;;6.37;5.77;;;32.70;43.50;;;;;;5030655;28;20517;-68
2021/08/21 12:12:59;;;;;;;7.33;6.17;;;32.60;43.10;;;;;;5026790;28;20438;-68
2021/08/21 12:15:31;;;;;;;5.80;4.57;;;32.70;43.10;;;;;;5030775;28;20861;-67
2021/08/21 12:17:59;;;;;;;6.80;5.47;;;32.70;42.60;;;;;;5030713;28;20441;-67
2021/08/21 12:20:26;;;;;;;7.07;5.70;;;32.70;43.80;;;;;;5030114;28;20444;-70
2021/08/21 12:22:53;;;;;;;5.87;5.30;;;32.70;44.10;;;;;;5028095;28;20477;-68
2021/08/21 12:25:21;;;;;;;5.60;5.10;;;32.70;41.70;;;;;;5033564;28;20534;-69
2021/08/21 12:28:09;;;;;;;5.77;4.90;;;32.60;42.10;;;;;;5031263;28;20797;-69
2021/08/21 12:30:38;;;;;;;6.23;5.60;;;32.50;42.70;;;;;;5025140;28;21031;-67
2021/08/21 12:33:11;;;;;;;5.80;5.20;;;32.40;42.80;;;;;;5013856;28;20445;-69
2021/08/21 12:35:38;;;;;;;7.67;6.50;;;32.40;42.80;;;;;;5014160;28;20917;-68
2021/08/21 12:38:07;;;;;;;6.60;5.33;;;32.50;44.50;;;;;;5014332;28;20439;-67
2021/08/21 12:40:35;;;;;;;5.80;4.73;;;32.50;43.30;;;;;;5012986;28;20950;-70
2021/08/21 12:43:03;;;;;;;5.80;5.20;;;32.40;42.60;;;;;;5011129;28;20822;-70
2021/08/21 12:45:30;;;;;;;6.80;5.40;;;32.40;43.30;;;;;;5013717;28;20917;-70
2021/08/21 12:48:09;;;;;;;5.57;4.80;;;32.30;44.60;;;;;;5014258;28;20446;-68
2021/08/21 12:50:40;;;;;;;5.87;5.27;;;32.10;43.60;;;;;;5011812;28;20486;-68
2021/08/21 12:53:08;;;;;;;7.20;6.10;;;32.10;44.90;;;;;;5013712;28;20431;-68
2021/08/21 12:55:40;;;;;;;6.43;5.03;;;32.10;45.50;;;;;;5010197;28;20570;-68
2021/08/21 12:58:08;;;;;;;6.23;4.90;;;32.20;44.20;;;;;;5009690;28;20439;-67